sensor_id;sensor_type;location;lat;lon;timestamp;temperature;humidity
25825;DHT22;13658;44.534;18.694;2022-10-31T00:01:29;9.70;99.90
25825;DHT22;13658;44.534;18.694;2022-10-31T00:03:55;9.70;99.90
25825;DHT22;13658;44.534;18.694;2022-10-31T00:06:22;9.60;99.90
25825;DHT22;13658;44.534;18.694;2022-10-31T00:09:00;9.60;99.90
25825;DHT22;13658;44.534;18.694;2022-10-31T00:11:26;9.50;99.90
25825;DHT22;13658;44.534;18.694;2022-10-31T00:13:53;9.50;99.90
25825;DHT22;13658;44.534;18.694;2022-10-31T00:16:21;9.50;99.90
25825;DHT22;13658;44.534;18.694;2022-10-31T00:18:52;9.40;99.90
25825;DHT22;13658;44.534;18.694;2022-10-31T00:21:19;9.40;99.90
25825;DHT22;13658;44.534;18.694;2022-10-31T00:23:45;9.40;99.90
25825;DHT22;13658;44.534;18.694;2022-10-31T00:26:11;9.40;99.90
25825;DHT22;13658;44.534;18.694;2022-10-31T00:28:37;9.40;99.90
25825;DHT22;13658;44.534;18.694;2022-10-31T00:31:05;9.40;99.90
25825;DHT22;13658;44.534;18.694;2022-10-31T00:33:33;9.40;99.90
25825;DHT22;13658;44.534;18.694;2022-10-31T00:36:00;9.20;99.90
25825;DHT22;13658;44.534;18.694;2022-10-31T00:42:07;9.00;99.90
25825;DHT22;13658;44.534;18.694;2022-10-31T00:44:33;8.90;99.90
25825;DHT22;13658;44.534;18.694;2022-10-31T00:46:59;8.80;99.90
25825;DHT22;13658;44.534;18.694;2022-10-31T00:49:24;8.90;99.90
25825;DHT22;13658;44.534;18.694;2022-10-31T00:51:50;8.90;99.90
25825;DHT22;13658;44.534;18.694;2022-10-31T00:54:16;9.00;99.90
25825;DHT22;13658;44.534;18.694;2022-10-31T00:56:43;8.90;99.90
25825;DHT22;13658;44.534;18.694;2022-10-31T00:59:09;9.00;99.90
25825;DHT22;13658;44.534;18.694;2022-10-31T01:01:36;8.90;99.90
25825;DHT22;13658;44.534;18.694;2022-10-31T01:04:02;9.00;99.90
25825;DHT22;13658;44.534;18.694;2022-10-31T01:06:28;8.80;99.90
25825;DHT22;13658;44.534;18.694;2022-10-31T01:08:56;8.80;99.90
25825;DHT22;13658;44.534;18.694;2022-10-31T01:11:23;8.90;99.90
25825;DHT22;13658;44.534;18.694;2022-10-31T01:13:53;9.00;99.90
25825;DHT22;13658;44.534;18.694;2022-10-31T01:16:24;8.90;99.90
25825;DHT22;13658;44.534;18.694;2022-10-31T01:18:51;8.60;99.90
25825;DHT22;13658;44.534;18.694;2022-10-31T01:21:19;8.70;99.90
25825;DHT22;13658;44.534;18.694;2022-10-31T01:23:48;8.60;99.90
25825;DHT22;13658;44.534;18.694;2022-10-31T01:26:19;8.50;99.90
25825;DHT22;13658;44.534;18.694;2022-10-31T01:28:54;8.40;99.90
25825;DHT22;13658;44.534;18.694;2022-10-31T01:31:23;8.50;99.90
25825;DHT22;13658;44.534;18.694;2022-10-31T01:33:49;8.50;99.90
25825;DHT22;13658;44.534;18.694;2022-10-31T01:36:27;8.50;99.90
25825;DHT22;13658;44.534;18.694;2022-10-31T01:38:56;8.50;99.90
25825;DHT22;13658;44.534;18.694;2022-10-31T01:41:25;8.60;99.90
25825;DHT22;13658;44.534;18.694;2022-10-31T01:44:00;8.60;99.90
25825;DHT22;13658;44.534;18.694;2022-10-31T01:46:27;8.60;99.90
25825;DHT22;13658;44.534;18.694;2022-10-31T01:48:55;8.70;99.90
25825;DHT22;13658;44.534;18.694;2022-10-31T01:51:26;8.70;99.90
25825;DHT22;13658;44.534;18.694;2022-10-31T01:53:58;8.70;99.90
25825;DHT22;13658;44.534;18.694;2022-10-31T01:56:25;8.70;99.90
25825;DHT22;13658;44.534;18.694;2022-10-31T01:58:51;8.70;99.90
25825;DHT22;13658;44.534;18.694;2022-10-31T02:01:18;8.70;99.90
25825;DHT22;13658;44.534;18.694;2022-10-31T02:03:45;8.50;99.90
25825;DHT22;13658;44.534;18.694;2022-10-31T02:09:06;8.50;99.90
25825;DHT22;13658;44.534;18.694;2022-10-31T02:11:33;8.50;99.90
25825;DHT22;13658;44.534;18.694;2022-10-31T02:14:02;8.50;99.90
25825;DHT22;13658;44.534;18.694;2022-10-31T02:16:31;8.40;99.90
25825;DHT22;13658;44.534;18.694;2022-10-31T02:33:55;8.30;99.90
25825;DHT22;13658;44.534;18.694;2022-10-31T02:42:12;8.30;99.90
25825;DHT22;13658;44.534;18.694;2022-10-31T02:47:44;8.30;99.90
25825;DHT22;13658;44.534;18.694;2022-10-31T02:52:43;8.30;99.90
25825;DHT22;13658;44.534;18.694;2022-10-31T02:57:48;8.30;99.90
25825;DHT22;13658;44.534;18.694;2022-10-31T03:00:16;8.30;99.90
25825;DHT22;13658;44.534;18.694;2022-10-31T03:02:44;8.30;99.90
25825;DHT22;13658;44.534;18.694;2022-10-31T03:11:06;7.90;99.90
25825;DHT22;13658;44.534;18.694;2022-10-31T03:13:51;7.90;99.90
25825;DHT22;13658;44.534;18.694;2022-10-31T03:16:45;7.80;99.90
25825;DHT22;13658;44.534;18.694;2022-10-31T03:19:23;7.90;99.90
25825;DHT22;13658;44.534;18.694;2022-10-31T03:21:58;8.00;99.90
25825;DHT22;13658;44.534;18.694;2022-10-31T03:24:31;8.10;99.90
25825;DHT22;13658;44.534;18.694;2022-10-31T03:26:59;8.10;99.90
25825;DHT22;13658;44.534;18.694;2022-10-31T03:29:32;8.10;99.90
25825;DHT22;13658;44.534;18.694;2022-10-31T03:32:09;8.20;99.90
25825;DHT22;13658;44.534;18.694;2022-10-31T03:34:37;8.10;99.90
25825;DHT22;13658;44.534;18.694;2022-10-31T03:37:08;7.80;99.90
25825;DHT22;13658;44.534;18.694;2022-10-31T03:39:38;7.70;99.90
25825;DHT22;13658;44.534;18.694;2022-10-31T03:42:12;7.80;99.90
25825;DHT22;13658;44.534;18.694;2022-10-31T03:44:42;7.80;99.90
25825;DHT22;13658;44.534;18.694;2022-10-31T03:47:10;7.60;99.90
25825;DHT22;13658;44.534;18.694;2022-10-31T03:49:36;7.50;99.90
25825;DHT22;13658;44.534;18.694;2022-10-31T03:54:49;7.50;99.90
25825;DHT22;13658;44.534;18.694;2022-10-31T03:57:35;7.40;99.90
25825;DHT22;13658;44.534;18.694;2022-10-31T04:00:07;7.50;99.90
25825;DHT22;13658;44.534;18.694;2022-10-31T04:05:33;7.60;99.90
25825;DHT22;13658;44.534;18.694;2022-10-31T04:08:04;7.70;99.90
25825;DHT22;13658;44.534;18.694;2022-10-31T04:10:38;7.80;99.90
25825;DHT22;13658;44.534;18.694;2022-10-31T04:13:08;7.80;99.90
25825;DHT22;13658;44.534;18.694;2022-10-31T04:15:49;7.90;99.90
25825;DHT22;13658;44.534;18.694;2022-10-31T04:18:18;7.80;99.90
25825;DHT22;13658;44.534;18.694;2022-10-31T04:20:44;7.80;99.90
25825;DHT22;13658;44.534;18.694;2022-10-31T04:23:20;7.80;99.90
25825;DHT22;13658;44.534;18.694;2022-10-31T04:29:29;7.80;99.90
25825;DHT22;13658;44.534;18.694;2022-10-31T04:31:55;7.80;99.90
25825;DHT22;13658;44.534;18.694;2022-10-31T04:34:21;7.80;99.90
25825;DHT22;13658;44.534;18.694;2022-10-31T04:36:50;7.80;99.90
25825;DHT22;13658;44.534;18.694;2022-10-31T04:39:17;7.80;99.90
25825;DHT22;13658;44.534;18.694;2022-10-31T04:42:06;7.70;99.90
25825;DHT22;13658;44.534;18.694;2022-10-31T04:44:33;7.70;99.90
25825;DHT22;13658;44.534;18.694;2022-10-31T04:50:42;7.70;99.90
25825;DHT22;13658;44.534;18.694;2022-10-31T04:53:09;7.60;99.90
25825;DHT22;13658;44.534;18.694;2022-10-31T04:55:46;7.60;99.90
25825;DHT22;13658;44.534;18.694;2022-10-31T04:58:22;7.60;99.90
25825;DHT22;13658;44.534;18.694;2022-10-31T05:00:52;7.60;99.90
25825;DHT22;13658;44.534;18.694;2022-10-31T05:03:19;7.70;99.90
25825;DHT22;13658;44.534;18.694;2022-10-31T05:05:45;7.70;99.90
25825;DHT22;13658;44.534;18.694;2022-10-31T05:08:12;7.70;99.90
25825;DHT22;13658;44.534;18.694;2022-10-31T05:10:38;7.70;99.90
25825;DHT22;13658;44.534;18.694;2022-10-31T05:13:05;7.70;99.90
25825;DHT22;13658;44.534;18.694;2022-10-31T05:15:37;7.60;99.90
25825;DHT22;13658;44.534;18.694;2022-10-31T05:18:09;7.60;99.90
25825;DHT22;13658;44.534;18.694;2022-10-31T05:20:55;7.50;99.90
25825;DHT22;13658;44.534;18.694;2022-10-31T05:23:25;7.60;99.90
25825;DHT22;13658;44.534;18.694;2022-10-31T05:25:53;7.60;99.90
25825;DHT22;13658;44.534;18.694;2022-10-31T05:28:20;7.60;99.90
25825;DHT22;13658;44.534;18.694;2022-10-31T05:30:46;7.60;99.90
25825;DHT22;13658;44.534;18.694;2022-10-31T05:33:14;7.50;99.90
25825;DHT22;13658;44.534;18.694;2022-10-31T05:35:59;7.50;99.90
25825;DHT22;13658;44.534;18.694;2022-10-31T05:38:25;7.60;99.90
25825;DHT22;13658;44.534;18.694;2022-10-31T05:40:56;7.50;99.90
25825;DHT22;13658;44.534;18.694;2022-10-31T05:43:30;7.40;99.90
25825;DHT22;13658;44.534;18.694;2022-10-31T05:45:57;7.50;99.90
25825;DHT22;13658;44.534;18.694;2022-10-31T05:48:51;7.60;99.90
25825;DHT22;13658;44.534;18.694;2022-10-31T05:51:36;7.70;99.90
25825;DHT22;13658;44.534;18.694;2022-10-31T05:54:03;7.80;99.90
25825;DHT22;13658;44.534;18.694;2022-10-31T05:56:30;7.80;99.90
25825;DHT22;13658;44.534;18.694;2022-10-31T05:58:56;8.10;99.90
25825;DHT22;13658;44.534;18.694;2022-10-31T06:01:22;8.20;99.90
25825;DHT22;13658;44.534;18.694;2022-10-31T06:03:48;8.30;99.90
25825;DHT22;13658;44.534;18.694;2022-10-31T06:06:15;8.50;99.90
25825;DHT22;13658;44.534;18.694;2022-10-31T06:08:41;8.60;99.90
25825;DHT22;13658;44.534;18.694;2022-10-31T06:11:14;8.70;99.90
25825;DHT22;13658;44.534;18.694;2022-10-31T06:14:09;9.00;99.90
25825;DHT22;13658;44.534;18.694;2022-10-31T06:16:51;9.30;99.90
25825;DHT22;13658;44.534;18.694;2022-10-31T06:19:48;9.60;99.90
25825;DHT22;13658;44.534;18.694;2022-10-31T06:22:19;9.50;99.90
25825;DHT22;13658;44.534;18.694;2022-10-31T06:24:46;9.50;99.90
25825;DHT22;13658;44.534;18.694;2022-10-31T06:27:31;9.50;99.90
25825;DHT22;13658;44.534;18.694;2022-10-31T06:30:03;9.50;99.90
25825;DHT22;13658;44.534;18.694;2022-10-31T06:32:34;9.60;99.90
25825;DHT22;13658;44.534;18.694;2022-10-31T06:35:00;9.60;99.90
25825;DHT22;13658;44.534;18.694;2022-10-31T06:37:29;9.80;99.90
25825;DHT22;13658;44.534;18.694;2022-10-31T06:40:02;9.90;99.90
25825;DHT22;13658;44.534;18.694;2022-10-31T06:42:33;10.00;99.90
25825;DHT22;13658;44.534;18.694;2022-10-31T06:45:01;10.20;99.90
25825;DHT22;13658;44.534;18.694;2022-10-31T06:47:57;10.30;99.90
25825;DHT22;13658;44.534;18.694;2022-10-31T06:50:28;10.40;99.90
25825;DHT22;13658;44.534;18.694;2022-10-31T06:52:56;10.50;99.90
25825;DHT22;13658;44.534;18.694;2022-10-31T06:55:24;10.50;99.90
25825;DHT22;13658;44.534;18.694;2022-10-31T06:57:52;10.60;99.90
25825;DHT22;13658;44.534;18.694;2022-10-31T07:00:18;10.40;99.90
25825;DHT22;13658;44.534;18.694;2022-10-31T07:03:05;10.60;99.90
25825;DHT22;13658;44.534;18.694;2022-10-31T07:05:32;10.70;99.90
25825;DHT22;13658;44.534;18.694;2022-10-31T07:08:05;10.60;99.90
25825;DHT22;13658;44.534;18.694;2022-10-31T07:10:33;10.70;99.90
25825;DHT22;13658;44.534;18.694;2022-10-31T07:13:05;10.60;99.90
25825;DHT22;13658;44.534;18.694;2022-10-31T07:15:35;10.80;99.90
25825;DHT22;13658;44.534;18.694;2022-10-31T07:18:03;10.70;99.90
25825;DHT22;13658;44.534;18.694;2022-10-31T07:20:30;10.80;99.90
25825;DHT22;13658;44.534;18.694;2022-10-31T07:22:57;10.90;99.90
25825;DHT22;13658;44.534;18.694;2022-10-31T07:25:24;11.00;99.90
25825;DHT22;13658;44.534;18.694;2022-10-31T07:28:09;11.10;99.90
25825;DHT22;13658;44.534;18.694;2022-10-31T07:30:36;11.30;99.90
25825;DHT22;13658;44.534;18.694;2022-10-31T07:33:03;11.40;99.90
25825;DHT22;13658;44.534;18.694;2022-10-31T07:35:48;11.50;99.90
25825;DHT22;13658;44.534;18.694;2022-10-31T07:38:19;11.60;99.90
25825;DHT22;13658;44.534;18.694;2022-10-31T07:40:52;11.60;99.90
25825;DHT22;13658;44.534;18.694;2022-10-31T07:43:19;11.80;99.90
25825;DHT22;13658;44.534;18.694;2022-10-31T07:46:03;11.90;99.90
25825;DHT22;13658;44.534;18.694;2022-10-31T07:49:04;12.10;99.90
25825;DHT22;13658;44.534;18.694;2022-10-31T07:51:49;12.30;99.90
25825;DHT22;13658;44.534;18.694;2022-10-31T07:54:34;12.50;99.90
25825;DHT22;13658;44.534;18.694;2022-10-31T07:57:00;12.80;99.90
25825;DHT22;13658;44.534;18.694;2022-10-31T07:59:25;13.40;99.90
25825;DHT22;13658;44.534;18.694;2022-10-31T08:01:53;14.10;99.90
25825;DHT22;13658;44.534;18.694;2022-10-31T08:04:34;14.80;99.90
25825;DHT22;13658;44.534;18.694;2022-10-31T08:07:19;15.60;99.90
25825;DHT22;13658;44.534;18.694;2022-10-31T08:09:53;16.30;99.90
25825;DHT22;13658;44.534;18.694;2022-10-31T08:12:23;16.60;99.90
25825;DHT22;13658;44.534;18.694;2022-10-31T08:14:49;17.10;99.90
25825;DHT22;13658;44.534;18.694;2022-10-31T08:17:18;17.50;99.90
25825;DHT22;13658;44.534;18.694;2022-10-31T08:19:52;17.80;99.90
25825;DHT22;13658;44.534;18.694;2022-10-31T08:22:23;18.20;99.90
25825;DHT22;13658;44.534;18.694;2022-10-31T08:24:49;18.60;99.90
25825;DHT22;13658;44.534;18.694;2022-10-31T08:27:15;18.50;99.90
25825;DHT22;13658;44.534;18.694;2022-10-31T08:29:42;19.00;99.90
25825;DHT22;13658;44.534;18.694;2022-10-31T08:32:08;19.50;99.90
25825;DHT22;13658;44.534;18.694;2022-10-31T08:34:57;19.70;99.90
25825;DHT22;13658;44.534;18.694;2022-10-31T08:37:42;19.80;99.90
25825;DHT22;13658;44.534;18.694;2022-10-31T08:40:10;19.00;99.90
25825;DHT22;13658;44.534;18.694;2022-10-31T08:42:36;19.10;99.90
25825;DHT22;13658;44.534;18.694;2022-10-31T08:45:03;18.80;99.90
25825;DHT22;13658;44.534;18.694;2022-10-31T08:47:31;18.80;99.90
25825;DHT22;13658;44.534;18.694;2022-10-31T08:49:57;19.20;99.90
25825;DHT22;13658;44.534;18.694;2022-10-31T08:52:24;19.70;99.90
25825;DHT22;13658;44.534;18.694;2022-10-31T08:54:52;20.30;99.90
25825;DHT22;13658;44.534;18.694;2022-10-31T08:57:40;20.50;99.90
25825;DHT22;13658;44.534;18.694;2022-10-31T09:00:07;20.30;99.90
25825;DHT22;13658;44.534;18.694;2022-10-31T09:03:01;20.20;99.90
25825;DHT22;13658;44.534;18.694;2022-10-31T09:05:30;20.70;99.90
25825;DHT22;13658;44.534;18.694;2022-10-31T09:08:00;21.10;99.90
25825;DHT22;13658;44.534;18.694;2022-10-31T09:10:28;22.00;99.90
25825;DHT22;13658;44.534;18.694;2022-10-31T09:13:06;22.10;99.90
25825;DHT22;13658;44.534;18.694;2022-10-31T09:16:04;22.30;99.90
25825;DHT22;13658;44.534;18.694;2022-10-31T09:18:31;23.10;99.90
25825;DHT22;13658;44.534;18.694;2022-10-31T09:20:59;23.50;99.90
25825;DHT22;13658;44.534;18.694;2022-10-31T09:23:30;22.70;99.90
25825;DHT22;13658;44.534;18.694;2022-10-31T09:25:59;23.20;99.90
25825;DHT22;13658;44.534;18.694;2022-10-31T09:28:37;23.80;99.90
25825;DHT22;13658;44.534;18.694;2022-10-31T09:31:07;23.10;99.90
25825;DHT22;13658;44.534;18.694;2022-10-31T09:33:56;22.60;99.90
25825;DHT22;13658;44.534;18.694;2022-10-31T09:36:35;22.60;99.90
25825;DHT22;13658;44.534;18.694;2022-10-31T09:39:02;23.00;99.90
25825;DHT22;13658;44.534;18.694;2022-10-31T09:44:26;22.70;99.90
25825;DHT22;13658;44.534;18.694;2022-10-31T09:52:30;22.90;99.90
25825;DHT22;13658;44.534;18.694;2022-10-31T09:55:16;23.00;99.90
25825;DHT22;13658;44.534;18.694;2022-10-31T09:57:43;23.10;99.90
25825;DHT22;13658;44.534;18.694;2022-10-31T10:00:19;23.30;99.90
25825;DHT22;13658;44.534;18.694;2022-10-31T10:02:57;23.40;99.90
25825;DHT22;13658;44.534;18.694;2022-10-31T10:05:38;23.50;99.90
25825;DHT22;13658;44.534;18.694;2022-10-31T10:08:18;23.80;99.90
25825;DHT22;13658;44.534;18.694;2022-10-31T10:11:30;24.30;99.90
25825;DHT22;13658;44.534;18.694;2022-10-31T10:14:21;25.40;99.90
25825;DHT22;13658;44.534;18.694;2022-10-31T10:22:37;25.30;99.90
25825;DHT22;13658;44.534;18.694;2022-10-31T10:25:32;25.00;99.90
25825;DHT22;13658;44.534;18.694;2022-10-31T10:28:08;25.60;99.90
25825;DHT22;13658;44.534;18.694;2022-10-31T10:30:54;26.00;99.90
25825;DHT22;13658;44.534;18.694;2022-10-31T10:33:40;26.30;99.90
25825;DHT22;13658;44.534;18.694;2022-10-31T10:36:26;27.00;99.90
25825;DHT22;13658;44.534;18.694;2022-10-31T10:39:03;27.10;99.90
25825;DHT22;13658;44.534;18.694;2022-10-31T10:41:31;27.20;99.90
25825;DHT22;13658;44.534;18.694;2022-10-31T10:43:58;26.70;99.90
25825;DHT22;13658;44.534;18.694;2022-10-31T10:49:34;25.70;99.90
25825;DHT22;13658;44.534;18.694;2022-10-31T10:54:57;25.40;99.90
25825;DHT22;13658;44.534;18.694;2022-10-31T10:57:32;25.30;99.90
25825;DHT22;13658;44.534;18.694;2022-10-31T11:00:17;25.20;99.90
25825;DHT22;13658;44.534;18.694;2022-10-31T11:02:43;25.10;99.90
25825;DHT22;13658;44.534;18.694;2022-10-31T11:05:26;25.10;99.90
25825;DHT22;13658;44.534;18.694;2022-10-31T11:07:53;25.10;99.90
25825;DHT22;13658;44.534;18.694;2022-10-31T11:10:19;25.10;99.90
25825;DHT22;13658;44.534;18.694;2022-10-31T11:13:00;25.00;99.90
25825;DHT22;13658;44.534;18.694;2022-10-31T11:15:27;24.80;99.90
25825;DHT22;13658;44.534;18.694;2022-10-31T11:17:56;24.80;99.90
25825;DHT22;13658;44.534;18.694;2022-10-31T11:20:33;24.80;99.90
25825;DHT22;13658;44.534;18.694;2022-10-31T11:23:15;24.70;99.90
25825;DHT22;13658;44.534;18.694;2022-10-31T11:25:58;24.70;99.90
25825;DHT22;13658;44.534;18.694;2022-10-31T11:28:28;24.70;99.90
25825;DHT22;13658;44.534;18.694;2022-10-31T11:31:13;24.70;99.90
25825;DHT22;13658;44.534;18.694;2022-10-31T11:33:49;24.70;99.90
25825;DHT22;13658;44.534;18.694;2022-10-31T11:36:16;24.70;99.90
25825;DHT22;13658;44.534;18.694;2022-10-31T11:38:44;24.60;99.90
25825;DHT22;13658;44.534;18.694;2022-10-31T11:41:36;24.50;99.90
25825;DHT22;13658;44.534;18.694;2022-10-31T11:44:25;24.50;99.90
25825;DHT22;13658;44.534;18.694;2022-10-31T11:46:55;24.40;99.90
25825;DHT22;13658;44.534;18.694;2022-10-31T11:49:27;24.40;99.90
25825;DHT22;13658;44.534;18.694;2022-10-31T11:51:56;24.40;99.90
25825;DHT22;13658;44.534;18.694;2022-10-31T11:54:33;24.40;99.90
25825;DHT22;13658;44.534;18.694;2022-10-31T11:57:01;24.30;99.90
25825;DHT22;13658;44.534;18.694;2022-10-31T11:59:31;24.40;99.90
25825;DHT22;13658;44.534;18.694;2022-10-31T12:02:00;24.40;99.90
25825;DHT22;13658;44.534;18.694;2022-10-31T12:04:41;24.50;99.90
25825;DHT22;13658;44.534;18.694;2022-10-31T12:07:08;24.50;99.90
25825;DHT22;13658;44.534;18.694;2022-10-31T12:15:29;24.50;99.90
25825;DHT22;13658;44.534;18.694;2022-10-31T12:18:36;24.50;99.90
25825;DHT22;13658;44.534;18.694;2022-10-31T12:21:21;24.50;99.90
25825;DHT22;13658;44.534;18.694;2022-10-31T12:30:02;24.50;99.90
25825;DHT22;13658;44.534;18.694;2022-10-31T12:40:57;24.50;99.90
25825;DHT22;13658;44.534;18.694;2022-10-31T12:45:52;24.50;99.90
25825;DHT22;13658;44.534;18.694;2022-10-31T12:51:47;24.40;99.90
25825;DHT22;13658;44.534;18.694;2022-10-31T13:02:26;24.40;99.90
25825;DHT22;13658;44.534;18.694;2022-10-31T13:05:22;24.50;99.90
25825;DHT22;13658;44.534;18.694;2022-10-31T13:10:43;24.50;99.90
25825;DHT22;13658;44.534;18.694;2022-10-31T13:13:21;24.50;99.90
25825;DHT22;13658;44.534;18.694;2022-10-31T13:15:53;24.40;99.90
25825;DHT22;13658;44.534;18.694;2022-10-31T13:18:31;24.40;99.90
25825;DHT22;13658;44.534;18.694;2022-10-31T13:21:01;24.40;99.90
25825;DHT22;13658;44.534;18.694;2022-10-31T13:23:30;24.30;99.90
25825;DHT22;13658;44.534;18.694;2022-10-31T13:25:58;24.30;99.90
25825;DHT22;13658;44.534;18.694;2022-10-31T13:28:46;24.30;99.90
25825;DHT22;13658;44.534;18.694;2022-10-31T13:31:16;24.30;99.90
25825;DHT22;13658;44.534;18.694;2022-10-31T13:33:54;24.20;99.90
25825;DHT22;13658;44.534;18.694;2022-10-31T13:36:55;24.30;99.90
25825;DHT22;13658;44.534;18.694;2022-10-31T13:42:23;24.30;99.90
25825;DHT22;13658;44.534;18.694;2022-10-31T13:44:50;24.30;99.90
25825;DHT22;13658;44.534;18.694;2022-10-31T13:47:27;24.30;99.90
25825;DHT22;13658;44.534;18.694;2022-10-31T13:50:14;24.30;99.90
25825;DHT22;13658;44.534;18.694;2022-10-31T13:52:43;24.20;99.90
25825;DHT22;13658;44.534;18.694;2022-10-31T13:55:38;24.10;99.90
25825;DHT22;13658;44.534;18.694;2022-10-31T14:00:45;24.00;99.90
25825;DHT22;13658;44.534;18.694;2022-10-31T14:03:19;23.90;99.90
25825;DHT22;13658;44.534;18.694;2022-10-31T14:05:52;23.80;99.90
25825;DHT22;13658;44.534;18.694;2022-10-31T14:08:21;23.70;99.90
25825;DHT22;13658;44.534;18.694;2022-10-31T14:10:50;23.60;99.90
25825;DHT22;13658;44.534;18.694;2022-10-31T14:16:25;23.50;99.90
25825;DHT22;13658;44.534;18.694;2022-10-31T14:19:17;23.40;99.90
25825;DHT22;13658;44.534;18.694;2022-10-31T14:21:47;23.30;99.90
25825;DHT22;13658;44.534;18.694;2022-10-31T14:24:32;23.20;99.90
25825;DHT22;13658;44.534;18.694;2022-10-31T14:27:29;23.00;99.90
25825;DHT22;13658;44.534;18.694;2022-10-31T14:29:49;22.80;99.90
25825;DHT22;13658;44.534;18.694;2022-10-31T14:32:23;22.70;99.90
25825;DHT22;13658;44.534;18.694;2022-10-31T14:50:48;21.80;99.90
25825;DHT22;13658;44.534;18.694;2022-10-31T14:56:09;21.60;99.90
25825;DHT22;13658;44.534;18.694;2022-10-31T14:58:39;21.50;99.90
25825;DHT22;13658;44.534;18.694;2022-10-31T15:01:06;21.50;99.90
25825;DHT22;13658;44.534;18.694;2022-10-31T15:03:36;21.40;99.90
25825;DHT22;13658;44.534;18.694;2022-10-31T15:06:10;21.30;99.90
25825;DHT22;13658;44.534;18.694;2022-10-31T15:08:44;21.20;99.90
25825;DHT22;13658;44.534;18.694;2022-10-31T15:13:42;20.90;99.90
25825;DHT22;13658;44.534;18.694;2022-10-31T15:16:09;20.70;99.90
25825;DHT22;13658;44.534;18.694;2022-10-31T15:18:39;20.50;99.90
25825;DHT22;13658;44.534;18.694;2022-10-31T15:21:10;20.30;99.90
25825;DHT22;13658;44.534;18.694;2022-10-31T15:23:39;20.20;99.90
25825;DHT22;13658;44.534;18.694;2022-10-31T15:26:05;20.10;99.90
25825;DHT22;13658;44.534;18.694;2022-10-31T15:28:31;19.90;99.90
25825;DHT22;13658;44.534;18.694;2022-10-31T15:30:59;19.80;99.90
25825;DHT22;13658;44.534;18.694;2022-10-31T15:33:28;19.70;99.90
25825;DHT22;13658;44.534;18.694;2022-10-31T15:35:59;19.60;99.90
25825;DHT22;13658;44.534;18.694;2022-10-31T15:38:26;19.40;99.90
25825;DHT22;13658;44.534;18.694;2022-10-31T15:41:06;19.40;99.90
25825;DHT22;13658;44.534;18.694;2022-10-31T15:43:46;19.30;99.90
25825;DHT22;13658;44.534;18.694;2022-10-31T15:46:12;19.30;99.90
25825;DHT22;13658;44.534;18.694;2022-10-31T15:48:39;19.10;99.90
25825;DHT22;13658;44.534;18.694;2022-10-31T15:51:09;19.00;99.90
25825;DHT22;13658;44.534;18.694;2022-10-31T15:53:49;18.80;99.90
25825;DHT22;13658;44.534;18.694;2022-10-31T15:56:28;18.60;99.90
25825;DHT22;13658;44.534;18.694;2022-10-31T15:58:57;18.50;99.90
25825;DHT22;13658;44.534;18.694;2022-10-31T16:01:28;18.30;99.90
25825;DHT22;13658;44.534;18.694;2022-10-31T16:06:38;18.10;99.90
25825;DHT22;13658;44.534;18.694;2022-10-31T16:09:22;18.00;99.90
25825;DHT22;13658;44.534;18.694;2022-10-31T16:11:49;18.00;99.90
25825;DHT22;13658;44.534;18.694;2022-10-31T16:14:22;17.90;99.90
25825;DHT22;13658;44.534;18.694;2022-10-31T16:16:55;17.70;99.90
25825;DHT22;13658;44.534;18.694;2022-10-31T16:19:32;17.60;99.90
25825;DHT22;13658;44.534;18.694;2022-10-31T16:22:05;17.60;99.90
25825;DHT22;13658;44.534;18.694;2022-10-31T16:24:42;17.50;99.90
25825;DHT22;13658;44.534;18.694;2022-10-31T16:27:31;17.50;99.90
25825;DHT22;13658;44.534;18.694;2022-10-31T16:30:00;17.40;99.90
25825;DHT22;13658;44.534;18.694;2022-10-31T16:32:58;17.20;99.90
25825;DHT22;13658;44.534;18.694;2022-10-31T16:37:58;17.00;99.90
25825;DHT22;13658;44.534;18.694;2022-10-31T16:40:24;16.90;99.90
25825;DHT22;13658;44.534;18.694;2022-10-31T16:42:51;16.90;99.90
25825;DHT22;13658;44.534;18.694;2022-10-31T16:45:23;16.80;99.90
25825;DHT22;13658;44.534;18.694;2022-10-31T16:47:50;16.80;99.90
25825;DHT22;13658;44.534;18.694;2022-10-31T16:50:25;16.70;99.90
25825;DHT22;13658;44.534;18.694;2022-10-31T16:52:51;16.60;99.90
25825;DHT22;13658;44.534;18.694;2022-10-31T16:55:19;16.40;99.90
25825;DHT22;13658;44.534;18.694;2022-10-31T16:57:50;16.30;99.90
25825;DHT22;13658;44.534;18.694;2022-10-31T17:00:20;16.30;99.90
25825;DHT22;13658;44.534;18.694;2022-10-31T17:02:47;16.30;99.90
25825;DHT22;13658;44.534;18.694;2022-10-31T17:05:16;16.20;99.90
25825;DHT22;13658;44.534;18.694;2022-10-31T17:07:42;16.20;99.90
25825;DHT22;13658;44.534;18.694;2022-10-31T17:10:10;16.10;99.90
25825;DHT22;13658;44.534;18.694;2022-10-31T17:12:37;16.10;99.90
25825;DHT22;13658;44.534;18.694;2022-10-31T17:15:08;16.00;99.90
25825;DHT22;13658;44.534;18.694;2022-10-31T17:17:36;15.90;99.90
25825;DHT22;13658;44.534;18.694;2022-10-31T17:20:18;15.70;99.90
25825;DHT22;13658;44.534;18.694;2022-10-31T17:22:44;15.70;99.90
25825;DHT22;13658;44.534;18.694;2022-10-31T17:25:22;15.60;99.90
25825;DHT22;13658;44.534;18.694;2022-10-31T17:27:49;15.40;99.90
25825;DHT22;13658;44.534;18.694;2022-10-31T17:30:17;15.40;99.90
25825;DHT22;13658;44.534;18.694;2022-10-31T17:32:44;15.40;99.90
25825;DHT22;13658;44.534;18.694;2022-10-31T17:35:11;15.40;99.90
25825;DHT22;13658;44.534;18.694;2022-10-31T17:37:39;15.30;99.90
25825;DHT22;13658;44.534;18.694;2022-10-31T17:40:10;15.20;99.90
25825;DHT22;13658;44.534;18.694;2022-10-31T17:42:37;15.10;99.90
25825;DHT22;13658;44.534;18.694;2022-10-31T17:45:04;15.00;99.90
25825;DHT22;13658;44.534;18.694;2022-10-31T17:47:31;14.90;99.90
25825;DHT22;13658;44.534;18.694;2022-10-31T17:49:57;14.90;99.90
25825;DHT22;13658;44.534;18.694;2022-10-31T17:52:23;14.80;99.90
25825;DHT22;13658;44.534;18.694;2022-10-31T17:54:52;14.70;99.90
25825;DHT22;13658;44.534;18.694;2022-10-31T17:57:18;14.60;99.90
25825;DHT22;13658;44.534;18.694;2022-10-31T17:59:44;14.60;99.90
25825;DHT22;13658;44.534;18.694;2022-10-31T18:02:10;14.60;99.90
25825;DHT22;13658;44.534;18.694;2022-10-31T18:04:37;14.60;99.90
25825;DHT22;13658;44.534;18.694;2022-10-31T18:07:03;14.60;99.90
25825;DHT22;13658;44.534;18.694;2022-10-31T18:09:29;14.50;99.90
25825;DHT22;13658;44.534;18.694;2022-10-31T18:11:55;14.40;99.90
25825;DHT22;13658;44.534;18.694;2022-10-31T18:14:21;14.40;99.90
25825;DHT22;13658;44.534;18.694;2022-10-31T18:16:47;14.50;99.90
25825;DHT22;13658;44.534;18.694;2022-10-31T18:19:15;14.40;99.90
25825;DHT22;13658;44.534;18.694;2022-10-31T18:21:43;14.30;99.90